Time;durP1;ratioP1;P1;durP2;ratioP2;P2;SDS_P1;SDS_P2;PMS_P1;PMS_P2;Temp;Humidity;BMP_temperature;BMP_pressure;BME280_temperature;BME280_humidity;BME280_pressure;Samples;Min_cycle;Max_cycle;Signal;HPM_P1;HPM_P2
2021/01/05 00:01:09;;;;;;;7.20;2.65;;;1.10;99.90;;;;;;4132709;28;20043;-87
2021/01/05 00:03:11;;;;;;;4.63;1.45;;;1.10;99.90;;;;;;4133610;28;20060;-87
2021/01/05 00:05:13;;;;;;;8.15;3.47;;;1.10;99.90;;;;;;4150308;28;20049;-87
2021/01/05 00:07:15;;;;;;;3.70;2.33;;;1.10;99.90;;;;;;4164153;28;20053;-87
2021/01/05 00:09:16;;;;;;;2.33;2.13;;;1.10;99.90;;;;;;4133006;28;20054;-87
2021/01/05 00:11:17;;;;;;;9.18;2.40;;;1.10;99.90;;;;;;4132560;28;20053;-87
2021/01/05 00:13:18;;;;;;;5.28;3.25;;;1.10;99.90;;;;;;4122217;28;20046;-87
2021/01/05 00:15:20;;;;;;;2.08;1.55;;;1.10;99.90;;;;;;4149388;28;20068;-87
2021/01/05 00:17:21;;;;;;;6.82;3.10;;;1.10;99.90;;;;;;4131658;28;20050;-87
2021/01/05 00:19:23;;;;;;;2.83;1.50;;;1.10;99.90;;;;;;4139115;28;20054;-87
2021/01/05 00:21:25;;;;;;;6.68;2.92;;;1.10;99.90;;;;;;4135962;28;20230;-87
2021/01/05 00:23:27;;;;;;;1.73;1.63;;;1.00;99.90;;;;;;4172114;28;20057;-86
2021/01/05 00:25:29;;;;;;;9.25;3.65;;;1.00;99.90;;;;;;4178315;28;20056;-86
2021/01/05 00:27:30;;;;;;;4.53;2.95;;;1.00;99.90;;;;;;4149412;28;20524;-86
2021/01/05 00:29:31;;;;;;;6.97;2.75;;;1.00;99.90;;;;;;4148273;28;20136;-86
2021/01/05 00:31:33;;;;;;;2.95;2.63;;;1.00;99.90;;;;;;4147784;28;20054;-86
2021/01/05 00:33:34;;;;;;;6.43;2.72;;;1.00;99.90;;;;;;4148776;28;20566;-87
2021/01/05 00:35:38;;;;;;;5.97;1.77;;;1.10;99.90;;;;;;4125252;28;20509;-87
2021/01/05 00:37:39;;;;;;;8.63;3.38;;;1.10;99.90;;;;;;4148924;28;20124;-87
2021/01/05 00:39:41;;;;;;;7.20;2.53;;;1.10;99.90;;;;;;4148675;28;20050;-87
2021/01/05 00:41:42;;;;;;;4.95;2.97;;;1.10;99.90;;;;;;4157366;28;20055;-86
2021/01/05 00:43:43;;;;;;;2.88;2.55;;;1.10;99.90;;;;;;4167954;28;20049;-86
2021/01/05 00:45:44;;;;;;;2.58;1.95;;;1.10;99.90;;;;;;4149014;28;20129;-87
2021/01/05 00:47:46;;;;;;;6.50;1.90;;;1.10;99.90;;;;;;4159924;28;20081;-86
2021/01/05 00:49:47;;;;;;;2.63;1.20;;;1.10;99.90;;;;;;4164889;28;20059;-87
2021/01/05 00:51:48;;;;;;;4.93;2.00;;;1.00;99.90;;;;;;4117859;28;20561;-87
2021/01/05 00:53:50;;;;;;;2.78;2.55;;;1.00;99.90;;;;;;4162729;28;20735;-87
2021/01/05 00:55:51;;;;;;;3.20;2.88;;;1.00;99.90;;;;;;4170023;28;20053;-87
2021/01/05 00:57:52;;;;;;;3.95;2.90;;;1.00;99.90;;;;;;4117539;28;20514;-87
2021/01/05 00:59:53;;;;;;;7.72;3.65;;;1.00;99.90;;;;;;4164618;28;20045;-87
2021/01/05 01:01:55;;;;;;;4.10;1.80;;;1.00;99.90;;;;;;4180844;28;20049;-86
2021/01/05 01:03:57;;;;;;;5.88;3.55;;;1.10;99.90;;;;;;4148272;28;20060;-87
2021/01/05 01:05:58;;;;;;;2.58;2.45;;;1.10;99.90;;;;;;4168852;28;20052;-87
2021/01/05 01:08:00;;;;;;;4.53;1.83;;;1.10;99.90;;;;;;4172753;28;20549;-87
2021/01/05 01:10:02;;;;;;;2.15;1.50;;;1.10;99.90;;;;;;4166599;28;20045;-85
2021/01/05 01:12:12;;;;;;;2.95;2.15;;;1.10;99.90;;;;;;4159936;28;20053;-87
2021/01/05 01:14:13;;;;;;;3.97;2.25;;;1.10;99.90;;;;;;4187004;28;20045;-86
2021/01/05 01:16:15;;;;;;;4.18;3.40;;;1.10;99.90;;;;;;4168597;28;20053;-86
2021/01/05 01:18:16;;;;;;;2.28;2.08;;;1.10;99.90;;;;;;4129216;28;20046;-87
2021/01/05 01:20:17;;;;;;;3.42;2.30;;;1.20;99.90;;;;;;4131137;28;20058;-87
2021/01/05 01:22:21;;;;;;;3.13;2.75;;;1.20;99.90;;;;;;4160515;28;20391;-87
2021/01/05 01:24:23;;;;;;;4.05;3.25;;;1.20;99.90;;;;;;4181250;28;20500;-87
2021/01/05 01:26:25;;;;;;;3.90;2.00;;;1.30;99.90;;;;;;4176033;28;20056;-87
2021/01/05 01:28:27;;;;;;;3.92;1.85;;;1.20;99.90;;;;;;4180721;28;21630;-87
2021/01/05 01:30:28;;;;;;;3.00;1.63;;;1.20;99.90;;;;;;4148604;28;20136;-87
2021/01/05 01:32:30;;;;;;;5.15;3.50;;;1.10;99.90;;;;;;4179923;28;20139;-87
2021/01/05 01:34:31;;;;;;;2.20;1.55;;;1.10;99.90;;;;;;4147324;28;20057;-86
2021/01/05 01:36:32;;;;;;;5.03;1.95;;;1.10;99.90;;;;;;4148373;28;20412;-85
2021/01/05 01:38:34;;;;;;;6.18;4.10;;;1.10;99.90;;;;;;4178523;28;20478;-87
2021/01/05 01:40:40;;;;;;;5.25;2.25;;;1.10;99.90;;;;;;4155685;28;20057;-87
2021/01/05 01:42:42;;;;;;;10.15;3.33;;;1.10;99.90;;;;;;4163932;28;20506;-87
2021/01/05 01:44:43;;;;;;;6.22;4.97;;;1.00;99.90;;;;;;4163136;28;20422;-87
2021/01/05 01:46:44;;;;;;;3.67;2.60;;;1.00;99.90;;;;;;4181520;28;20485;-86
2021/01/05 01:48:46;;;;;;;5.03;4.03;;;1.00;99.90;;;;;;4147611;28;20052;-86
2021/01/05 01:50:47;;;;;;;2.53;2.38;;;1.00;99.90;;;;;;4178215;28;20513;-87
2021/01/05 01:53:07;;;;;;;7.32;3.40;;;1.00;99.90;;;;;;4147350;28;20060;-86
2021/01/05 01:55:29;;;;;;;7.50;3.05;;;1.00;99.90;;;;;;4178472;28;20041;-87
2021/01/05 01:57:45;;;;;;;2.50;1.83;;;1.00;99.90;;;;;;4180697;28;20057;-87
2021/01/05 01:59:55;;;;;;;4.30;2.38;;;1.00;99.90;;;;;;4179356;28;20508;-86
2021/01/05 02:02:14;;;;;;;3.85;2.70;;;1.10;99.90;;;;;;4177324;28;20056;-87
2021/01/05 02:04:23;;;;;;;4.30;2.17;;;1.10;99.90;;;;;;4179826;28;20058;-87
2021/01/05 02:06:51;;;;;;;1.52;1.42;;;1.10;99.90;;;;;;4164011;28;20056;-87
2021/01/05 02:08:52;;;;;;;5.93;2.33;;;1.10;99.90;;;;;;4180058;28;20059;-87
2021/01/05 02:11:04;;;;;;;2.33;2.22;;;1.20;99.90;;;;;;4176740;28;20505;-87
2021/01/05 02:13:38;;;;;;;5.07;3.17;;;1.20;99.90;;;;;;4164796;28;20041;-87
2021/01/05 02:15:58;;;;;;;3.35;3.05;;;1.10;99.90;;;;;;4133573;28;20064;-87
2021/01/05 02:18:24;;;;;;;8.32;4.20;;;1.20;99.90;;;;;;4180107;28;20460;-88
2021/01/05 02:20:32;;;;;;;4.10;2.95;;;1.20;99.90;;;;;;4164890;28;20135;-87
2021/01/05 02:22:43;;;;;;;8.02;4.18;;;1.20;99.90;;;;;;4176093;28;20068;-86
2021/01/05 02:24:50;;;;;;;11.68;2.40;;;1.20;99.90;;;;;;4163954;28;20053;-87
2021/01/05 02:27:00;;;;;;;1.00;1.00;;;1.20;99.90;;;;;;4178638;28;20425;-87
2021/01/05 02:29:05;;;;;;;3.60;2.83;;;1.20;99.90;;;;;;4175743;28;20547;-87
2021/01/05 02:31:21;;;;;;;3.50;2.97;;;1.20;99.90;;;;;;4149747;28;20141;-86
2021/01/05 02:33:29;;;;;;;4.75;2.05;;;1.20;99.90;;;;;;4148722;28;20054;-87
2021/01/05 02:35:40;;;;;;;5.30;2.47;;;1.20;99.90;;;;;;4162796;28;20096;-87
2021/01/05 02:38:09;;;;;;;3.45;1.48;;;1.20;99.90;;;;;;4172829;28;20549;-86
2021/01/05 02:40:32;;;;;;;3.10;2.80;;;1.30;99.90;;;;;;4177647;28;20488;-86
2021/01/05 02:42:52;;;;;;;2.72;2.53;;;1.30;99.90;;;;;;4163353;28;20053;-87
2021/01/05 02:45:06;;;;;;;2.38;1.73;;;1.30;99.90;;;;;;4178303;28;20045;-87
2021/01/05 02:47:38;;;;;;;7.07;2.95;;;1.30;99.90;;;;;;4164607;28;20048;-87
2021/01/05 02:49:46;;;;;;;7.70;3.42;;;1.30;99.90;;;;;;4168547;28;20051;-87
2021/01/05 02:52:10;;;;;;;6.03;2.67;;;1.30;99.90;;;;;;4146530;28;20053;-86
2021/01/05 02:54:20;;;;;;;3.33;1.80;;;1.30;99.90;;;;;;4164235;28;20045;-86
2021/01/05 02:56:36;;;;;;;2.95;2.45;;;1.30;99.90;;;;;;4180953;28;20060;-87
2021/01/05 02:58:58;;;;;;;3.10;2.53;;;1.40;99.90;;;;;;4181182;28;20533;-87
2021/01/05 03:01:23;;;;;;;15.32;3.25;;;1.30;99.90;;;;;;4180903;28;20081;-87
2021/01/05 03:03:40;;;;;;;2.72;2.50;;;1.30;99.90;;;;;;4184097;28;20056;-87
2021/01/05 03:05:47;;;;;;;4.65;4.13;;;1.30;99.90;;;;;;4193670;28;20048;-87
2021/01/05 03:07:49;;;;;;;8.77;5.50;;;1.30;99.90;;;;;;4165880;28;20057;-87
2021/01/05 03:10:29;;;;;;;4.70;4.28;;;1.20;99.90;;;;;;4135959;28;20054;-86
2021/01/05 03:12:42;;;;;;;5.38;2.63;;;1.20;99.90;;;;;;4202330;28;20058;-86
2021/01/05 03:15:07;;;;;;;2.30;2.10;;;1.30;99.90;;;;;;4181833;28;20053;-86
2021/01/05 03:17:19;;;;;;;5.00;2.95;;;1.20;99.90;;;;;;4166065;28;20041;-87
2021/01/05 03:19:30;;;;;;;8.40;3.42;;;1.30;99.90;;;;;;4168246;28;20052;-86
2021/01/05 03:21:37;;;;;;;1.95;1.67;;;1.30;99.90;;;;;;4215188;28;20060;-87
2021/01/05 03:23:39;;;;;;;1.83;1.73;;;1.30;99.90;;;;;;4166457;28;20613;-86
2021/01/05 03:25:47;;;;;;;3.90;2.85;;;1.30;99.90;;;;;;4142510;28;20099;-87
2021/01/05 03:27:48;;;;;;;5.30;4.32;;;1.40;99.90;;;;;;4149211;28;20054;-87
2021/01/05 03:30:12;;;;;;;3.88;2.80;;;1.40;99.90;;;;;;4173059;28;20049;-86
2021/01/05 03:32:13;;;;;;;7.13;3.00;;;1.40;99.90;;;;;;4165554;28;20052;-87
2021/01/05 03:34:15;;;;;;;2.67;2.47;;;1.30;99.90;;;;;;4182331;28;20052;-87
2021/01/05 03:36:16;;;;;;;7.63;5.20;;;1.30;99.90;;;;;;4184416;28;20049;-86
2021/01/05 03:38:17;;;;;;;5.88;2.83;;;1.30;99.90;;;;;;4184385;28;20045;-87
2021/01/05 03:40:19;;;;;;;3.70;2.78;;;1.40;99.90;;;;;;4169650;28;20049;-86
2021/01/05 03:42:20;;;;;;;8.48;4.88;;;1.30;99.90;;;;;;4166787;28;20093;-87
2021/01/05 03:44:22;;;;;;;4.50;3.58;;;1.20;99.90;;;;;;4164051;28;20517;-87
2021/01/05 03:46:25;;;;;;;8.82;3.88;;;1.30;99.90;;;;;;4171988;28;20059;-86
2021/01/05 03:48:26;;;;;;;3.13;2.60;;;1.30;99.90;;;;;;4164209;28;20057;-86
2021/01/05 03:50:28;;;;;;;9.95;2.65;;;1.30;99.90;;;;;;4149374;28;20050;-87
2021/01/05 03:52:29;;;;;;;8.35;3.63;;;1.20;99.90;;;;;;4149178;28;20133;-87
2021/01/05 03:54:30;;;;;;;6.88;2.97;;;1.30;99.90;;;;;;4166467;28;20543;-87
2021/01/05 03:56:32;;;;;;;3.72;2.45;;;1.30;99.90;;;;;;4176853;28;20049;-87
2021/01/05 03:58:33;;;;;;;2.10;1.65;;;1.30;99.90;;;;;;4173208;28;20055;-86
2021/01/05 04:00:35;;;;;;;8.23;3.70;;;1.30;99.90;;;;;;4181777;28;20060;-88
2021/01/05 04:02:36;;;;;;;9.20;4.20;;;1.30;99.90;;;;;;4173968;28;20049;-87
2021/01/05 04:04:37;;;;;;;3.42;1.55;;;1.30;99.90;;;;;;4168869;28;20049;-87
2021/01/05 04:06:38;;;;;;;3.03;2.22;;;1.30;99.90;;;;;;4149038;28;20053;-87
2021/01/05 04:08:40;;;;;;;2.58;2.38;;;1.30;99.90;;;;;;4179560;28;20057;-87
2021/01/05 04:10:41;;;;;;;3.10;2.90;;;1.20;99.90;;;;;;4157694;28;20052;-86
2021/01/05 04:12:42;;;;;;;3.17;2.88;;;1.30;99.90;;;;;;4149494;28;20050;-87
2021/01/05 04:14:44;;;;;;;4.15;2.40;;;1.40;99.90;;;;;;4169942;28;20110;-86
2021/01/05 04:16:46;;;;;;;3.45;2.13;;;1.30;99.90;;;;;;4168735;28;20073;-86
2021/01/05 04:18:47;;;;;;;2.53;2.15;;;1.30;99.90;;;;;;4180677;28;20513;-87
2021/01/05 04:20:49;;;;;;;3.28;2.13;;;1.30;99.90;;;;;;4168013;28;20061;-87
2021/01/05 04:22:50;;;;;;;2.88;2.63;;;1.30;99.90;;;;;;4126399;28;20070;-87
2021/01/05 04:24:52;;;;;;;8.15;3.70;;;1.20;99.90;;;;;;4147893;28;20077;-87
2021/01/05 04:26:53;;;;;;;4.13;2.80;;;1.30;99.90;;;;;;4147292;28;20060;-87
2021/01/05 04:28:54;;;;;;;4.85;3.08;;;1.30;99.90;;;;;;4156876;28;20061;-87
2021/01/05 04:30:56;;;;;;;2.38;1.55;;;1.30;99.90;;;;;;4132501;28;20129;-87
2021/01/05 04:33:04;;;;;;;7.22;4.53;;;1.30;99.90;;;;;;4181708;28;20061;-87
2021/01/05 04:35:06;;;;;;;3.85;2.17;;;1.30;99.90;;;;;;4148300;28;20050;-87
2021/01/05 04:37:07;;;;;;;8.52;3.13;;;1.30;99.90;;;;;;4147153;28;20046;-87
2021/01/05 04:39:10;;;;;;;6.80;2.28;;;1.40;99.90;;;;;;4132750;28;20056;-87
2021/01/05 04:41:18;;;;;;;7.28;2.78;;;1.30;99.90;;;;;;4130662;28;20050;-86
2021/01/05 04:43:54;;;;;;;2.03;1.63;;;1.30;99.90;;;;;;4131765;28;20057;-87
2021/01/05 04:45:55;;;;;;;8.07;4.70;;;1.30;99.90;;;;;;4096964;29;20574;-87
2021/01/05 04:48:15;;;;;;;6.82;2.47;;;1.30;99.90;;;;;;4088358;29;20467;-87
2021/01/05 04:50:25;;;;;;;3.50;2.33;;;1.40;99.90;;;;;;4072134;29;20517;-87
2021/01/05 04:52:42;;;;;;;3.03;2.65;;;1.30;99.90;;;;;;4084155;29;20051;-86
2021/01/05 04:55:03;;;;;;;2.05;1.95;;;1.40;99.90;;;;;;4084025;29;20428;-87
2021/01/05 04:57:19;;;;;;;3.55;3.20;;;1.40;99.90;;;;;;4090249;29;20191;-87
2021/01/05 04:59:22;;;;;;;3.92;3.28;;;1.40;99.90;;;;;;4088340;29;20058;-87
2021/01/05 05:01:31;;;;;;;2.95;2.75;;;1.40;99.90;;;;;;4069675;29;20054;-87
2021/01/05 05:03:36;;;;;;;9.23;3.28;;;1.40;99.90;;;;;;4115887;28;20607;-87
2021/01/05 05:05:57;;;;;;;2.75;1.92;;;1.40;99.90;;;;;;4103456;28;20087;-87
2021/01/05 05:08:22;;;;;;;1.38;1.25;;;1.40;99.90;;;;;;4086924;29;20441;-86
2021/01/05 05:10:28;;;;;;;4.45;1.83;;;1.40;99.90;;;;;;4085277;29;20059;-86
2021/01/05 05:12:58;;;;;;;2.38;2.15;;;1.40;99.90;;;;;;4084921;29;20173;-87
2021/01/05 05:15:12;;;;;;;2.65;1.75;;;1.40;99.90;;;;;;4036225;29;20061;-87
2021/01/05 05:17:27;;;;;;;3.38;2.50;;;1.40;99.90;;;;;;4031120;29;20483;-86
2021/01/05 05:20:03;;;;;;;2.55;2.35;;;1.40;99.90;;;;;;4027363;29;20083;-87
2021/01/05 05:22:26;;;;;;;5.05;3.03;;;1.40;99.90;;;;;;4074793;28;20542;-87
2021/01/05 05:24:47;;;;;;;12.23;2.60;;;1.40;99.90;;;;;;4114081;28;20070;-87
2021/01/05 05:27:38;;;;;;;1.83;1.38;;;1.40;99.90;;;;;;4115097;28;20042;-86
2021/01/05 05:29:53;;;;;;;4.07;2.25;;;1.40;99.90;;;;;;4051560;29;20057;-87
2021/01/05 05:31:54;;;;;;;5.78;3.33;;;1.40;99.90;;;;;;4036243;29;20632;-87
2021/01/05 05:34:09;;;;;;;4.20;2.40;;;1.40;99.90;;;;;;4064916;29;20108;-88
2021/01/05 05:36:23;;;;;;;3.63;1.83;;;1.40;99.90;;;;;;4037551;29;20071;-87
2021/01/05 05:38:28;;;;;;;1.35;0.95;;;1.40;99.90;;;;;;4030327;29;20057;-87
2021/01/05 05:40:29;;;;;;;;;;;1.40;99.90;;;;;;4043368;29;20064;-86
2021/01/05 05:42:39;;;;;;;3.75;2.45;;;1.40;99.90;;;;;;4052683;29;20010;-86
2021/01/05 05:45:07;;;;;;;2.47;2.13;;;1.40;99.90;;;;;;4056251;29;20053;-87
2021/01/05 05:47:18;;;;;;;8.27;3.22;;;1.40;99.90;;;;;;4053359;29;20059;-86
2021/01/05 05:49:54;;;;;;;2.67;1.85;;;1.30;99.90;;;;;;4023579;29;20053;-87
2021/01/05 05:51:57;;;;;;;5.53;3.13;;;1.40;99.90;;;;;;4040211;29;20059;-87
2021/01/05 05:54:12;;;;;;;2.15;1.67;;;1.30;99.90;;;;;;4052188;29;20052;-88
2021/01/05 05:56:15;;;;;;;7.57;2.80;;;1.30;99.90;;;;;;4032480;29;20046;-87
2021/01/05 05:58:19;;;;;;;11.25;4.30;;;1.30;99.90;;;;;;4035960;29;20468;-87
2021/01/05 06:00:41;;;;;;;6.80;1.93;;;1.30;99.90;;;;;;4023379;29;20065;-86
2021/01/05 06:02:42;;;;;;;4.25;3.05;;;1.40;99.90;;;;;;4013672;29;20317;-87
2021/01/05 06:04:43;;;;;;;4.35;2.88;;;1.40;99.90;;;;;;4047252;28;20057;-87
2021/01/05 06:06:45;;;;;;;4.68;3.08;;;1.40;99.90;;;;;;4083224;29;20471;-86
2021/01/05 06:08:46;;;;;;;2.90;2.60;;;1.40;99.90;;;;;;4098330;28;20067;-88
2021/01/05 06:10:47;;;;;;;1.92;1.60;;;1.40;99.90;;;;;;4083372;29;20059;-87
2021/01/05 06:12:48;;;;;;;7.40;4.15;;;1.40;99.90;;;;;;4082171;29;20052;-87
2021/01/05 06:14:50;;;;;;;7.43;2.10;;;1.40;99.90;;;;;;4082464;29;20134;-86
2021/01/05 06:16:51;;;;;;;4.10;1.80;;;1.40;99.90;;;;;;4074491;29;20059;-87
2021/01/05 06:18:52;;;;;;;4.53;3.03;;;1.40;99.90;;;;;;4082483;29;20134;-86
2021/01/05 06:20:54;;;;;;;5.32;2.40;;;1.50;99.90;;;;;;4077984;28;20066;-87
2021/01/05 06:22:56;;;;;;;8.38;5.57;;;1.50;99.90;;;;;;4092276;28;20051;-86
2021/01/05 06:24:58;;;;;;;2.65;2.33;;;1.50;99.90;;;;;;4100053;28;20059;-87
2021/01/05 06:26:59;;;;;;;1.77;1.67;;;1.50;99.90;;;;;;4066821;29;20052;-87
2021/01/05 06:29:00;;;;;;;3.38;2.55;;;1.60;99.90;;;;;;4115201;28;20046;-87
2021/01/05 06:31:02;;;;;;;4.03;2.30;;;1.60;99.90;;;;;;4163140;28;20055;-87
2021/01/05 06:33:03;;;;;;;5.93;2.45;;;1.50;99.90;;;;;;4151776;28;20053;-87
2021/01/05 06:35:05;;;;;;;3.35;2.85;;;1.50;99.90;;;;;;4126496;28;20129;-87
2021/01/05 06:37:06;;;;;;;6.35;2.42;;;1.50;99.90;;;;;;4176082;28;20067;-87
2021/01/05 06:39:09;;;;;;;2.88;1.58;;;1.50;99.90;;;;;;4147115;28;20050;-86
2021/01/05 06:41:10;;;;;;;4.18;1.88;;;1.50;99.90;;;;;;4130567;28;20125;-85
2021/01/05 06:43:11;;;;;;;6.75;2.30;;;1.50;99.90;;;;;;4161513;28;20054;-87
2021/01/05 06:45:18;;;;;;;6.45;3.60;;;1.60;99.90;;;;;;4147420;28;20065;-86
2021/01/05 06:47:19;;;;;;;4.90;3.75;;;1.60;99.90;;;;;;4136968;28;20128;-86
2021/01/05 06:49:21;;;;;;;3.53;3.13;;;1.50;99.90;;;;;;4129773;28;20533;-88
2021/01/05 06:51:22;;;;;;;6.28;2.40;;;1.50;99.90;;;;;;4131229;28;20160;-87
2021/01/05 06:53:23;;;;;;;0.90;0.88;;;1.50;99.90;;;;;;4161589;28;20490;-87
2021/01/05 06:55:25;;;;;;;9.60;5.05;;;1.50;99.90;;;;;;4143589;28;20082;-87
2021/01/05 06:57:26;;;;;;;10.95;3.47;;;1.50;99.90;;;;;;4147099;28;20053;-87
2021/01/05 06:59:28;;;;;;;3.15;2.85;;;1.50;99.90;;;;;;4146869;28;20133;-87
2021/01/05 07:01:29;;;;;;;4.18;2.35;;;1.50;99.90;;;;;;4130524;28;20050;-86
2021/01/05 07:03:31;;;;;;;3.22;2.08;;;1.60;99.90;;;;;;4130874;28;20046;-87
2021/01/05 07:05:32;;;;;;;10.18;3.63;;;1.60;99.90;;;;;;4155923;28;20054;-87
2021/01/05 07:07:34;;;;;;;3.40;1.83;;;1.60;99.90;;;;;;4146637;28;20069;-88
2021/01/05 07:09:35;;;;;;;11.00;2.55;;;1.60;99.90;;;;;;4130632;28;20064;-87
2021/01/05 07:11:36;;;;;;;1.70;1.60;;;1.60;99.90;;;;;;4163004;28;20140;-87
2021/01/05 07:13:38;;;;;;;3.20;2.38;;;1.60;99.90;;;;;;4155201;28;20057;-87
2021/01/05 07:15:39;;;;;;;8.95;3.38;;;1.70;99.90;;;;;;4147352;28;20061;-88
2021/01/05 07:17:40;;;;;;;2.08;1.98;;;1.70;99.90;;;;;;4174483;28;20057;-87
2021/01/05 07:19:42;;;;;;;1.67;1.58;;;1.70;99.90;;;;;;4176107;28;20072;-87
2021/01/05 07:21:43;;;;;;;3.30;2.40;;;1.70;99.90;;;;;;4153510;28;20521;-87
2021/01/05 07:23:44;;;;;;;7.25;2.92;;;1.70;99.90;;;;;;4147196;28;20053;-87
2021/01/05 07:25:46;;;;;;;4.03;3.00;;;1.70;99.90;;;;;;4165612;28;20135;-87
2021/01/05 07:27:47;;;;;;;2.70;2.28;;;1.70;99.90;;;;;;4131970;28;20129;-85
2021/01/05 07:29:48;;;;;;;3.60;3.05;;;1.70;99.90;;;;;;4191620;28;20047;-85
2021/01/05 07:31:50;;;;;;;7.10;2.97;;;1.80;99.90;;;;;;4177332;28;20492;-85
2021/01/05 07:33:51;;;;;;;6.10;2.47;;;1.80;99.90;;;;;;4178475;28;20080;-85
2021/01/05 07:35:53;;;;;;;5.70;3.10;;;1.80;99.90;;;;;;4178478;28;20132;-85
2021/01/05 07:37:54;;;;;;;7.28;3.30;;;1.80;99.90;;;;;;4181448;28;20552;-84
2021/01/05 07:39:56;;;;;;;3.90;2.75;;;1.80;99.90;;;;;;4182933;28;20547;-85
2021/01/05 07:42:23;;;;;;;3.10;2.88;;;1.80;99.90;;;;;;4187185;28;20059;-84
2021/01/05 07:44:24;;;;;;;4.57;3.33;;;1.70;99.90;;;;;;4165197;28;20088;-84
2021/01/05 07:46:25;;;;;;;2.72;2.53;;;1.70;99.90;;;;;;4180489;28;20135;-84
2021/01/05 07:48:27;;;;;;;2.72;2.10;;;1.70;99.90;;;;;;4182703;28;20663;-84
2021/01/05 07:50:28;;;;;;;4.28;3.90;;;1.70;99.90;;;;;;4181070;28;20041;-84
2021/01/05 07:52:39;;;;;;;7.00;4.63;;;1.70;99.90;;;;;;4180729;28;20068;-86
2021/01/05 07:54:40;;;;;;;4.28;3.00;;;1.70;99.90;;;;;;4166802;28;20055;-85
2021/01/05 07:56:44;;;;;;;6.75;2.38;;;1.70;99.90;;;;;;4181004;28;20080;-85
2021/01/05 07:58:46;;;;;;;4.57;2.10;;;1.70;99.90;;;;;;4179921;28;20132;-85
2021/01/05 08:00:47;;;;;;;5.25;1.83;;;1.70;99.90;;;;;;4181343;28;20577;-85
2021/01/05 08:02:48;;;;;;;4.47;2.33;;;1.70;99.90;;;;;;4180816;28;20056;-85
2021/01/05 08:04:50;;;;;;;5.60;2.40;;;1.70;99.90;;;;;;4197944;28;20045;-85
2021/01/05 08:06:51;;;;;;;4.28;2.63;;;1.60;99.90;;;;;;4167514;28;20041;-85
2021/01/05 08:08:52;;;;;;;5.13;2.53;;;1.70;99.90;;;;;;4163653;28;20444;-86
2021/01/05 08:10:54;;;;;;;7.65;4.25;;;1.70;99.90;;;;;;4179922;28;20132;-85
2021/01/05 08:12:55;;;;;;;2.75;2.50;;;1.70;99.90;;;;;;4155263;28;20126;-87
2021/01/05 08:14:56;;;;;;;2.28;2.10;;;1.60;99.90;;;;;;4184993;28;20100;-85
2021/01/05 08:16:58;;;;;;;10.68;5.13;;;1.70;99.90;;;;;;4188537;28;20049;-82
2021/01/05 08:18:59;;;;;;;1.85;1.75;;;1.70;99.90;;;;;;4201300;28;20036;-84
2021/01/05 08:21:01;;;;;;;4.07;2.67;;;1.70;99.90;;;;;;4202962;28;20025;-82
2021/01/05 08:23:03;;;;;;;6.13;3.33;;;1.70;99.90;;;;;;4189207;28;20492;-87
2021/01/05 08:25:05;;;;;;;7.28;2.65;;;1.70;99.90;;;;;;4183627;28;20099;-89
2021/01/05 08:27:07;;;;;;;1.88;1.35;;;1.70;99.90;;;;;;4182691;28;20135;-86
2021/01/05 08:29:08;;;;;;;5.93;1.70;;;1.70;99.90;;;;;;4179633;28;20055;-85
2021/01/05 08:31:09;;;;;;;8.15;4.28;;;1.70;99.90;;;;;;4179977;28;20588;-84
2021/01/05 08:33:13;;;;;;;2.22;1.95;;;1.70;99.90;;;;;;4162269;28;20060;-84
2021/01/05 08:35:16;;;;;;;3.72;2.88;;;1.80;99.90;;;;;;4179600;28;20048;-84
2021/01/05 08:37:17;;;;;;;8.48;3.40;;;1.80;99.90;;;;;;4194891;28;20045;-84
2021/01/05 08:39:18;;;;;;;11.20;3.80;;;1.90;99.90;;;;;;4178484;28;20513;-84
2021/01/05 08:41:20;;;;;;;4.25;3.85;;;1.90;99.90;;;;;;4179699;28;20472;-85
2021/01/05 08:43:21;;;;;;;7.00;2.15;;;1.90;99.90;;;;;;4194726;28;20551;-85
2021/01/05 08:45:22;;;;;;;8.85;4.60;;;1.90;99.90;;;;;;4162951;28;20140;-84
2021/01/05 08:47:23;;;;;;;11.00;5.05;;;1.90;99.90;;;;;;4162974;28;20053;-84
2021/01/05 08:49:25;;;;;;;4.22;2.45;;;1.90;99.90;;;;;;4194566;28;20059;-84
2021/01/05 08:51:32;;;;;;;4.68;2.70;;;1.90;99.90;;;;;;4148280;28;20041;-84
2021/01/05 08:53:34;;;;;;;7.40;2.83;;;2.00;99.90;;;;;;4161564;28;20577;-84
2021/01/05 08:55:36;;;;;;;4.28;2.25;;;1.90;99.90;;;;;;4191784;28;20051;-85
2021/01/05 08:57:37;;;;;;;3.38;1.48;;;1.90;99.90;;;;;;4180864;28;20104;-84
2021/01/05 08:59:38;;;;;;;3.45;2.80;;;2.00;99.90;;;;;;4180017;28;20055;-84
2021/01/05 09:01:40;;;;;;;4.05;3.65;;;2.00;99.90;;;;;;4178972;28;20445;-84
2021/01/05 09:03:41;;;;;;;3.08;1.65;;;2.00;99.90;;;;;;4180955;28;20045;-85
2021/01/05 09:05:43;;;;;;;4.03;2.20;;;2.00;99.90;;;;;;4163536;28;20053;-86
2021/01/05 09:07:44;;;;;;;1.88;1.67;;;2.00;99.90;;;;;;4184126;28;20043;-86
2021/01/05 09:09:45;;;;;;;2.10;1.92;;;2.00;99.90;;;;;;4180361;28;20045;-84
2021/01/05 09:11:54;;;;;;;2.83;1.23;;;2.00;99.90;;;;;;4197826;28;20063;-85
2021/01/05 09:13:55;;;;;;;5.47;2.55;;;2.00;99.90;;;;;;4179291;28;20052;-84
2021/01/05 09:15:57;;;;;;;3.60;1.90;;;2.00;99.90;;;;;;4182760;28;20091;-86
2021/01/05 09:18:02;;;;;;;1.55;1.27;;;2.00;99.90;;;;;;4163240;28;20136;-85
2021/01/05 09:20:03;;;;;;;2.00;1.90;;;2.00;99.90;;;;;;4147319;28;20046;-86
2021/01/05 09:22:05;;;;;;;4.03;1.27;;;2.00;99.90;;;;;;4170230;28;20056;-86
2021/01/05 09:24:07;;;;;;;5.30;2.42;;;2.10;99.90;;;;;;4157418;28;20144;-89
2021/01/05 09:26:16;;;;;;;9.18;3.55;;;2.10;99.90;;;;;;4148487;28;20176;-87
2021/01/05 09:28:18;;;;;;;4.60;3.67;;;2.10;99.90;;;;;;4169747;28;20408;-86
2021/01/05 09:30:19;;;;;;;3.35;3.13;;;2.10;99.90;;;;;;4150967;28;20085;-88
2021/01/05 09:32:20;;;;;;;4.30;2.35;;;2.10;99.90;;;;;;4181895;28;20067;-87
2021/01/05 09:34:23;;;;;;;2.67;1.33;;;2.00;99.20;;;;;;4183292;28;20473;-86
2021/01/05 09:36:31;;;;;;;4.32;2.83;;;2.00;99.20;;;;;;4179829;28;20132;-87
2021/01/05 09:38:32;;;;;;;3.47;2.40;;;2.00;99.40;;;;;;4195928;28;20053;-86
2021/01/05 09:40:37;;;;;;;6.10;2.25;;;2.10;99.40;;;;;;4146501;28;20054;-87
2021/01/05 09:42:38;;;;;;;1.63;1.45;;;2.00;98.90;;;;;;4179768;28;20079;-88
2021/01/05 09:44:40;;;;;;;7.97;3.45;;;2.00;99.00;;;;;;4163996;28;20604;-88
2021/01/05 09:46:41;;;;;;;4.57;2.05;;;2.10;99.00;;;;;;4194967;28;20096;-88
2021/01/05 09:48:43;;;;;;;1.75;1.65;;;2.10;98.40;;;;;;4191217;28;20461;-86
2021/01/05 09:50:45;;;;;;;3.22;2.13;;;2.10;98.80;;;;;;4191433;28;20151;-85
2021/01/05 09:52:46;;;;;;;4.20;2.22;;;2.10;99.00;;;;;;4191797;28;20044;-88
2021/01/05 09:54:48;;;;;;;2.55;2.05;;;2.10;99.10;;;;;;4164123;28;20125;-87
2021/01/05 09:56:51;;;;;;;2.97;2.13;;;2.10;98.70;;;;;;4166519;28;20057;-92
2021/01/05 09:58:53;;;;;;;3.47;1.63;;;2.10;98.60;;;;;;4186802;28;20127;-86
2021/01/05 10:00:55;;;;;;;3.75;1.52;;;2.10;98.60;;;;;;4174647;28;20057;-85
2021/01/05 10:02:56;;;;;;;4.78;2.58;;;2.20;98.50;;;;;;4178284;28;20129;-85
2021/01/05 10:04:57;;;;;;;3.25;1.00;;;2.10;98.30;;;;;;4195749;28;20048;-85
2021/01/05 10:06:59;;;;;;;11.52;2.50;;;2.10;98.40;;;;;;4178821;28;25373;-84
2021/01/05 10:09:07;;;;;;;2.22;2.03;;;2.10;98.50;;;;;;4152540;28;20050;-85
2021/01/05 10:11:10;;;;;;;4.97;2.25;;;2.10;98.60;;;;;;4154223;28;20481;-84
2021/01/05 10:13:11;;;;;;;5.70;2.42;;;2.10;98.50;;;;;;4182192;28;20496;-85
2021/01/05 10:15:13;;;;;;;1.27;1.20;;;2.10;98.50;;;;;;4192882;28;20063;-85
2021/01/05 10:17:14;;;;;;;11.60;2.72;;;2.10;98.60;;;;;;4200547;28;20413;-86
2021/01/05 10:19:15;;;;;;;2.53;2.33;;;2.10;98.40;;;;;;4188161;28;20055;-84
2021/01/05 10:21:17;;;;;;;3.60;1.52;;;2.10;98.40;;;;;;4194206;28;20580;-86
2021/01/05 10:23:18;;;;;;;3.78;1.85;;;2.20;98.80;;;;;;4189899;28;20040;-86
2021/01/05 10:25:19;;;;;;;3.25;1.30;;;2.10;98.20;;;;;;4159552;28;20449;-85
2021/01/05 10:27:21;;;;;;;2.40;1.48;;;2.20;98.20;;;;;;4194670;28;20053;-88
2021/01/05 10:29:23;;;;;;;2.38;2.03;;;2.20;97.90;;;;;;4190636;28;20048;-84
2021/01/05 10:31:24;;;;;;;1.70;1.60;;;2.20;98.20;;;;;;4189642;28;20088;-89
2021/01/05 10:33:28;;;;;;;4.32;1.77;;;2.20;98.30;;;;;;4194880;28;20040;-84
2021/01/05 10:35:30;;;;;;;2.08;1.25;;;2.20;98.30;;;;;;4189726;28;20058;-88
2021/01/05 10:37:31;;;;;;;5.60;2.13;;;2.30;98.40;;;;;;4161991;28;20508;-86
2021/01/05 10:39:38;;;;;;;3.38;1.55;;;2.20;98.20;;;;;;4163946;28;20117;-84
2021/01/05 10:41:41;;;;;;;2.75;1.67;;;2.30;98.20;;;;;;4160289;28;20067;-85
2021/01/05 10:43:43;;;;;;;2.35;1.77;;;2.30;98.10;;;;;;4162596;28;20056;-85
2021/01/05 10:45:44;;;;;;;3.63;1.30;;;2.20;98.20;;;;;;4180688;28;20057;-86
2021/01/05 10:47:46;;;;;;;5.22;0.73;;;2.30;98.40;;;;;;4162402;28;20054;-85
2021/01/05 10:49:47;;;;;;;4.28;2.97;;;2.30;98.00;;;;;;4177749;28;20076;-88
2021/01/05 10:51:50;;;;;;;3.13;2.13;;;2.30;98.10;;;;;;4147740;28;20050;-88
2021/01/05 10:53:52;;;;;;;2.22;2.10;;;2.30;98.10;;;;;;4161766;28;20057;-87
2021/01/05 10:55:54;;;;;;;6.10;2.30;;;2.40;97.90;;;;;;4162986;28;20060;-91
2021/01/05 10:57:57;;;;;;;5.55;1.75;;;2.40;97.90;;;;;;4162515;28;20053;-86
2021/01/05 10:59:58;;;;;;;4.53;1.30;;;2.40;97.90;;;;;;4202699;28;20444;-85
2021/01/05 11:02:02;;;;;;;2.70;1.85;;;2.50;97.80;;;;;;4173611;28;20053;-83